sensor_id;sensor_type;location;lat;lon;timestamp;P1;durP1;ratioP1;P2;durP2;ratioP2
36211;SDS011;22247;48.586;13.492;2024-01-10T00:03:35;35.15;;;12.05;;
36211;SDS011;22247;48.586;13.492;2024-01-10T00:06:00;31.60;;;12.02;;
36211;SDS011;22247;48.586;13.492;2024-01-10T00:08:27;31.95;;;11.60;;
36211;SDS011;22247;48.586;13.492;2024-01-10T00:10:54;37.50;;;12.40;;
36211;SDS011;22247;48.586;13.492;2024-01-10T00:13:24;40.65;;;13.38;;
36211;SDS011;22247;48.586;13.492;2024-01-10T00:15:50;38.22;;;12.70;;
36211;SDS011;22247;48.586;13.492;2024-01-10T00:18:19;32.13;;;11.70;;
36211;SDS011;22247;48.586;13.492;2024-01-10T00:20:47;37.38;;;13.10;;
36211;SDS011;22247;48.586;13.492;2024-01-10T00:23:13;34.60;;;12.23;;
36211;SDS011;22247;48.586;13.492;2024-01-10T00:28:03;39.63;;;12.70;;
36211;SDS011;22247;48.586;13.492;2024-01-10T00:32:52;35.63;;;12.93;;
36211;SDS011;22247;48.586;13.492;2024-01-10T00:35:17;45.38;;;13.07;;
36211;SDS011;22247;48.586;13.492;2024-01-10T00:37:42;31.25;;;11.65;;
36211;SDS011;22247;48.586;13.492;2024-01-10T00:40:07;35.22;;;12.05;;
36211;SDS011;22247;48.586;13.492;2024-01-10T00:42:35;33.78;;;11.93;;
36211;SDS011;22247;48.586;13.492;2024-01-10T00:45:00;34.58;;;12.70;;
36211;SDS011;22247;48.586;13.492;2024-01-10T00:47:27;37.10;;;13.00;;
36211;SDS011;22247;48.586;13.492;2024-01-10T00:52:17;40.03;;;13.40;;
36211;SDS011;22247;48.586;13.492;2024-01-10T00:54:42;33.20;;;11.70;;
36211;SDS011;22247;48.586;13.492;2024-01-10T00:57:08;33.28;;;12.07;;
36211;SDS011;22247;48.586;13.492;2024-01-10T01:01:57;31.70;;;10.60;;
36211;SDS011;22247;48.586;13.492;2024-01-10T01:04:22;40.58;;;12.98;;
36211;SDS011;22247;48.586;13.492;2024-01-10T01:06:49;41.30;;;13.25;;
36211;SDS011;22247;48.586;13.492;2024-01-10T01:09:14;44.90;;;13.18;;
36211;SDS011;22247;48.586;13.492;2024-01-10T01:14:05;39.53;;;12.83;;
36211;SDS011;22247;48.586;13.492;2024-01-10T01:16:32;43.63;;;13.25;;
36211;SDS011;22247;48.586;13.492;2024-01-10T01:21:24;40.85;;;11.68;;
36211;SDS011;22247;48.586;13.492;2024-01-10T01:23:52;37.05;;;12.63;;
36211;SDS011;22247;48.586;13.492;2024-01-10T01:26:16;39.95;;;13.00;;
36211;SDS011;22247;48.586;13.492;2024-01-10T01:31:06;35.47;;;11.95;;
36211;SDS011;22247;48.586;13.492;2024-01-10T01:33:31;37.17;;;12.38;;
36211;SDS011;22247;48.586;13.492;2024-01-10T01:38:20;34.93;;;11.97;;
36211;SDS011;22247;48.586;13.492;2024-01-10T01:45:45;34.75;;;12.80;;
36211;SDS011;22247;48.586;13.492;2024-01-10T01:50:35;41.00;;;13.03;;
36211;SDS011;22247;48.586;13.492;2024-01-10T01:55:29;30.25;;;11.88;;
36211;SDS011;22247;48.586;13.492;2024-01-10T01:57:54;40.53;;;12.98;;
36211;SDS011;22247;48.586;13.492;2024-01-10T02:00:19;40.45;;;14.65;;
36211;SDS011;22247;48.586;13.492;2024-01-10T02:02:45;38.13;;;12.88;;
36211;SDS011;22247;48.586;13.492;2024-01-10T02:05:13;38.97;;;13.23;;
36211;SDS011;22247;48.586;13.492;2024-01-10T02:07:39;42.60;;;13.68;;
36211;SDS011;22247;48.586;13.492;2024-01-10T02:12:29;35.03;;;12.15;;
36211;SDS011;22247;48.586;13.492;2024-01-10T02:17:21;40.80;;;13.68;;
36211;SDS011;22247;48.586;13.492;2024-01-10T02:19:46;41.15;;;13.30;;
36211;SDS011;22247;48.586;13.492;2024-01-10T02:22:13;47.45;;;15.95;;
36211;SDS011;22247;48.586;13.492;2024-01-10T02:27:05;39.33;;;13.45;;
36211;SDS011;22247;48.586;13.492;2024-01-10T02:31:57;40.60;;;13.68;;
36211;SDS011;22247;48.586;13.492;2024-01-10T02:34:22;35.83;;;13.40;;
36211;SDS011;22247;48.586;13.492;2024-01-10T02:39:14;51.05;;;16.10;;
36211;SDS011;22247;48.586;13.492;2024-01-10T02:41:44;43.53;;;14.77;;
36211;SDS011;22247;48.586;13.492;2024-01-10T02:44:09;39.92;;;13.63;;
36211;SDS011;22247;48.586;13.492;2024-01-10T02:46:38;40.08;;;13.05;;
36211;SDS011;22247;48.586;13.492;2024-01-10T02:49:05;46.50;;;14.85;;
36211;SDS011;22247;48.586;13.492;2024-01-10T02:53:55;37.08;;;12.32;;
36211;SDS011;22247;48.586;13.492;2024-01-10T02:58:44;35.88;;;12.30;;
36211;SDS011;22247;48.586;13.492;2024-01-10T03:03:34;39.25;;;13.35;;
36211;SDS011;22247;48.586;13.492;2024-01-10T03:05:59;34.28;;;12.10;;
36211;SDS011;22247;48.586;13.492;2024-01-10T03:10:49;41.83;;;12.88;;
36211;SDS011;22247;48.586;13.492;2024-01-10T03:15:39;37.25;;;12.65;;
36211;SDS011;22247;48.586;13.492;2024-01-10T03:20:29;33.97;;;11.90;;
36211;SDS011;22247;48.586;13.492;2024-01-10T03:25:18;35.83;;;12.02;;
36211;SDS011;22247;48.586;13.492;2024-01-10T03:27:45;39.53;;;13.23;;
36211;SDS011;22247;48.586;13.492;2024-01-10T03:32:35;45.30;;;13.63;;
36211;SDS011;22247;48.586;13.492;2024-01-10T03:37:25;43.72;;;12.48;;
36211;SDS011;22247;48.586;13.492;2024-01-10T03:42:15;41.13;;;12.15;;
36211;SDS011;22247;48.586;13.492;2024-01-10T03:47:04;34.17;;;11.55;;
36211;SDS011;22247;48.586;13.492;2024-01-10T03:51:54;36.25;;;11.40;;
36211;SDS011;22247;48.586;13.492;2024-01-10T03:56:44;37.08;;;11.00;;
36211;SDS011;22247;48.586;13.492;2024-01-10T04:01:34;34.53;;;12.10;;
36211;SDS011;22247;48.586;13.492;2024-01-10T04:06:26;30.88;;;11.32;;
36211;SDS011;22247;48.586;13.492;2024-01-10T04:08:52;34.55;;;12.90;;
36211;SDS011;22247;48.586;13.492;2024-01-10T04:11:19;33.90;;;12.05;;
36211;SDS011;22247;48.586;13.492;2024-01-10T04:13:47;35.08;;;11.90;;
36211;SDS011;22247;48.586;13.492;2024-01-10T04:16:12;32.97;;;12.40;;
36211;SDS011;22247;48.586;13.492;2024-01-10T04:18:39;34.40;;;11.80;;
36211;SDS011;22247;48.586;13.492;2024-01-10T04:21:06;40.42;;;12.68;;
36211;SDS011;22247;48.586;13.492;2024-01-10T04:23:34;31.67;;;12.35;;
36211;SDS011;22247;48.586;13.492;2024-01-10T04:26:00;35.00;;;11.40;;
36211;SDS011;22247;48.586;13.492;2024-01-10T04:28:26;36.15;;;11.57;;
36211;SDS011;22247;48.586;13.492;2024-01-10T04:33:18;38.95;;;11.63;;
36211;SDS011;22247;48.586;13.492;2024-01-10T04:35:43;39.70;;;12.43;;
36211;SDS011;22247;48.586;13.492;2024-01-10T04:40:33;36.22;;;12.60;;
36211;SDS011;22247;48.586;13.492;2024-01-10T04:45:25;35.55;;;12.65;;
36211;SDS011;22247;48.586;13.492;2024-01-10T04:47:50;38.15;;;12.32;;
36211;SDS011;22247;48.586;13.492;2024-01-10T04:52:40;42.30;;;13.20;;
36211;SDS011;22247;48.586;13.492;2024-01-10T04:55:05;36.08;;;12.15;;
36211;SDS011;22247;48.586;13.492;2024-01-10T04:57:31;40.55;;;13.20;;
36211;SDS011;22247;48.586;13.492;2024-01-10T05:02:22;34.03;;;12.20;;
36211;SDS011;22247;48.586;13.492;2024-01-10T05:07:15;32.25;;;11.20;;
36211;SDS011;22247;48.586;13.492;2024-01-10T05:09:44;30.95;;;11.15;;
36211;SDS011;22247;48.586;13.492;2024-01-10T05:12:09;35.40;;;12.13;;
36211;SDS011;22247;48.586;13.492;2024-01-10T05:17:01;39.55;;;12.85;;
36211;SDS011;22247;48.586;13.492;2024-01-10T05:19:27;41.78;;;13.00;;
36211;SDS011;22247;48.586;13.492;2024-01-10T05:24:18;33.70;;;11.23;;
36211;SDS011;22247;48.586;13.492;2024-01-10T05:26:43;40.78;;;12.23;;
36211;SDS011;22247;48.586;13.492;2024-01-10T05:29:09;41.13;;;15.20;;
36211;SDS011;22247;48.586;13.492;2024-01-10T05:33:58;47.70;;;12.85;;
36211;SDS011;22247;48.586;13.492;2024-01-10T05:38:48;38.05;;;12.38;;
36211;SDS011;22247;48.586;13.492;2024-01-10T05:43:38;39.83;;;12.18;;
36211;SDS011;22247;48.586;13.492;2024-01-10T05:46:05;37.00;;;13.32;;
36211;SDS011;22247;48.586;13.492;2024-01-10T05:50:56;36.25;;;12.52;;
36211;SDS011;22247;48.586;13.492;2024-01-10T05:55:46;34.42;;;12.05;;
36211;SDS011;22247;48.586;13.492;2024-01-10T06:00:35;35.63;;;12.60;;
36211;SDS011;22247;48.586;13.492;2024-01-10T06:05:25;41.25;;;13.80;;
36211;SDS011;22247;48.586;13.492;2024-01-10T06:10:15;40.85;;;11.90;;
36211;SDS011;22247;48.586;13.492;2024-01-10T06:12:41;36.53;;;13.35;;
36211;SDS011;22247;48.586;13.492;2024-01-10T06:17:31;32.33;;;11.80;;
36211;SDS011;22247;48.586;13.492;2024-01-10T06:19:58;32.97;;;12.65;;
36211;SDS011;22247;48.586;13.492;2024-01-10T06:22:26;33.70;;;12.18;;
36211;SDS011;22247;48.586;13.492;2024-01-10T06:24:53;36.63;;;11.95;;
36211;SDS011;22247;48.586;13.492;2024-01-10T06:27:18;33.40;;;12.20;;
36211;SDS011;22247;48.586;13.492;2024-01-10T06:32:08;35.17;;;11.90;;
36211;SDS011;22247;48.586;13.492;2024-01-10T06:37:00;33.07;;;11.53;;
36211;SDS011;22247;48.586;13.492;2024-01-10T06:39:25;34.35;;;12.70;;
36211;SDS011;22247;48.586;13.492;2024-01-10T06:41:51;43.88;;;13.57;;
36211;SDS011;22247;48.586;13.492;2024-01-10T06:44:16;34.10;;;13.07;;
36211;SDS011;22247;48.586;13.492;2024-01-10T06:49:09;45.83;;;12.03;;
36211;SDS011;22247;48.586;13.492;2024-01-10T06:51:34;39.50;;;12.43;;
36211;SDS011;22247;48.586;13.492;2024-01-10T06:56:27;31.30;;;11.00;;
36211;SDS011;22247;48.586;13.492;2024-01-10T06:58:54;37.05;;;13.48;;
36211;SDS011;22247;48.586;13.492;2024-01-10T07:03:46;39.30;;;13.05;;
36211;SDS011;22247;48.586;13.492;2024-01-10T07:08:38;39.70;;;14.07;;
36211;SDS011;22247;48.586;13.492;2024-01-10T07:13:31;39.40;;;12.38;;
36211;SDS011;22247;48.586;13.492;2024-01-10T07:18:25;39.47;;;12.82;;
36211;SDS011;22247;48.586;13.492;2024-01-10T07:23:15;32.72;;;12.93;;
36211;SDS011;22247;48.586;13.492;2024-01-10T07:28:04;40.50;;;12.93;;
36211;SDS011;22247;48.586;13.492;2024-01-10T07:32:57;36.83;;;12.55;;
36211;SDS011;22247;48.586;13.492;2024-01-10T07:35:22;32.00;;;12.68;;
36211;SDS011;22247;48.586;13.492;2024-01-10T07:40:14;41.30;;;12.40;;
36211;SDS011;22247;48.586;13.492;2024-01-10T07:42:42;33.05;;;11.85;;
36211;SDS011;22247;48.586;13.492;2024-01-10T07:45:07;35.22;;;12.65;;
36211;SDS011;22247;48.586;13.492;2024-01-10T07:47:33;41.60;;;13.48;;
36211;SDS011;22247;48.586;13.492;2024-01-10T07:49:58;41.53;;;14.43;;
36211;SDS011;22247;48.586;13.492;2024-01-10T07:54:50;36.33;;;11.63;;
36211;SDS011;22247;48.586;13.492;2024-01-10T07:59:42;34.78;;;12.50;;
36211;SDS011;22247;48.586;13.492;2024-01-10T08:02:07;35.00;;;12.93;;
36211;SDS011;22247;48.586;13.492;2024-01-10T08:04:34;39.40;;;13.82;;
36211;SDS011;22247;48.586;13.492;2024-01-10T08:06:59;35.35;;;12.88;;
36211;SDS011;22247;48.586;13.492;2024-01-10T08:09:25;37.53;;;12.77;;
36211;SDS011;22247;48.586;13.492;2024-01-10T08:11:51;36.50;;;13.65;;
36211;SDS011;22247;48.586;13.492;2024-01-10T08:16:41;35.25;;;13.30;;
36211;SDS011;22247;48.586;13.492;2024-01-10T08:21:31;36.80;;;13.07;;
36211;SDS011;22247;48.586;13.492;2024-01-10T08:23:56;36.08;;;12.13;;
36211;SDS011;22247;48.586;13.492;2024-01-10T08:26:21;43.03;;;13.98;;
36211;SDS011;22247;48.586;13.492;2024-01-10T08:31:11;36.20;;;13.68;;
36211;SDS011;22247;48.586;13.492;2024-01-10T08:33:39;34.85;;;12.98;;
36211;SDS011;22247;48.586;13.492;2024-01-10T08:36:06;37.58;;;12.95;;
36211;SDS011;22247;48.586;13.492;2024-01-10T08:38:33;36.30;;;13.45;;
36211;SDS011;22247;48.586;13.492;2024-01-10T08:41:01;35.50;;;13.90;;
36211;SDS011;22247;48.586;13.492;2024-01-10T08:43:27;33.65;;;13.23;;
36211;SDS011;22247;48.586;13.492;2024-01-10T08:48:16;39.15;;;13.82;;
36211;SDS011;22247;48.586;13.492;2024-01-10T08:53:06;32.45;;;12.75;;
36211;SDS011;22247;48.586;13.492;2024-01-10T08:55:31;37.47;;;14.15;;
36211;SDS011;22247;48.586;13.492;2024-01-10T08:57:58;37.47;;;12.13;;
36211;SDS011;22247;48.586;13.492;2024-01-10T09:02:48;39.88;;;14.63;;
36211;SDS011;22247;48.586;13.492;2024-01-10T09:05:13;39.05;;;12.95;;
36211;SDS011;22247;48.586;13.492;2024-01-10T09:10:03;36.33;;;13.68;;
36211;SDS011;22247;48.586;13.492;2024-01-10T09:12:29;35.63;;;12.93;;
36211;SDS011;22247;48.586;13.492;2024-01-10T09:17:18;29.60;;;12.10;;
36211;SDS011;22247;48.586;13.492;2024-01-10T09:19:43;37.33;;;13.00;;
36211;SDS011;22247;48.586;13.492;2024-01-10T09:22:08;40.30;;;15.18;;
36211;SDS011;22247;48.586;13.492;2024-01-10T09:24:33;35.70;;;12.45;;
36211;SDS011;22247;48.586;13.492;2024-01-10T09:26:59;37.28;;;12.95;;
36211;SDS011;22247;48.586;13.492;2024-01-10T09:31:52;33.13;;;13.00;;
36211;SDS011;22247;48.586;13.492;2024-01-10T09:36:42;32.00;;;12.57;;
36211;SDS011;22247;48.586;13.492;2024-01-10T09:39:08;38.50;;;12.63;;
36211;SDS011;22247;48.586;13.492;2024-01-10T09:41:37;39.58;;;13.57;;
36211;SDS011;22247;48.586;13.492;2024-01-10T09:44:11;40.72;;;14.15;;
36211;SDS011;22247;48.586;13.492;2024-01-10T09:46:36;39.70;;;14.07;;
36211;SDS011;22247;48.586;13.492;2024-01-10T09:49:03;44.10;;;13.65;;
36211;SDS011;22247;48.586;13.492;2024-01-10T09:51:29;38.95;;;14.02;;
36211;SDS011;22247;48.586;13.492;2024-01-10T09:53:55;39.33;;;14.77;;
36211;SDS011;22247;48.586;13.492;2024-01-10T09:56:21;34.10;;;13.38;;
36211;SDS011;22247;48.586;13.492;2024-01-10T09:58:49;38.40;;;13.48;;
36211;SDS011;22247;48.586;13.492;2024-01-10T10:01:15;34.50;;;13.95;;
36211;SDS011;22247;48.586;13.492;2024-01-10T10:03:40;32.45;;;12.70;;
36211;SDS011;22247;48.586;13.492;2024-01-10T10:06:07;37.25;;;13.57;;
36211;SDS011;22247;48.586;13.492;2024-01-10T10:08:32;48.22;;;13.85;;
36211;SDS011;22247;48.586;13.492;2024-01-10T10:13:29;42.67;;;14.13;;
36211;SDS011;22247;48.586;13.492;2024-01-10T10:16:12;36.47;;;13.88;;
36211;SDS011;22247;48.586;13.492;2024-01-10T10:18:37;35.97;;;14.52;;
36211;SDS011;22247;48.586;13.492;2024-01-10T10:21:20;38.92;;;13.90;;
36211;SDS011;22247;48.586;13.492;2024-01-10T10:23:58;36.67;;;15.00;;
36211;SDS011;22247;48.586;13.492;2024-01-10T10:26:23;39.25;;;13.80;;
36211;SDS011;22247;48.586;13.492;2024-01-10T10:28:51;33.28;;;13.57;;
36211;SDS011;22247;48.586;13.492;2024-01-10T10:31:16;40.40;;;15.18;;
36211;SDS011;22247;48.586;13.492;2024-01-10T10:33:42;36.53;;;13.68;;
36211;SDS011;22247;48.586;13.492;2024-01-10T10:36:07;35.53;;;14.45;;
36211;SDS011;22247;48.586;13.492;2024-01-10T10:38:35;39.97;;;14.63;;
36211;SDS011;22247;48.586;13.492;2024-01-10T10:41:06;37.40;;;13.88;;
36211;SDS011;22247;48.586;13.492;2024-01-10T10:43:34;36.70;;;14.20;;
36211;SDS011;22247;48.586;13.492;2024-01-10T10:46:00;34.25;;;14.30;;
36211;SDS011;22247;48.586;13.492;2024-01-10T10:48:25;40.30;;;15.07;;
36211;SDS011;22247;48.586;13.492;2024-01-10T10:51:04;36.92;;;14.55;;
36211;SDS011;22247;48.586;13.492;2024-01-10T10:53:36;40.83;;;14.18;;
36211;SDS011;22247;48.586;13.492;2024-01-10T10:56:07;39.95;;;14.38;;
36211;SDS011;22247;48.586;13.492;2024-01-10T10:58:33;36.38;;;13.63;;
36211;SDS011;22247;48.586;13.492;2024-01-10T11:01:02;35.42;;;14.23;;
36211;SDS011;22247;48.586;13.492;2024-01-10T11:03:29;32.75;;;14.02;;
36211;SDS011;22247;48.586;13.492;2024-01-10T11:05:55;44.72;;;14.93;;
36211;SDS011;22247;48.586;13.492;2024-01-10T11:08:21;34.83;;;14.55;;
36211;SDS011;22247;48.586;13.492;2024-01-10T11:10:47;32.35;;;12.85;;
36211;SDS011;22247;48.586;13.492;2024-01-10T11:24:39;34.90;;;14.13;;
36211;SDS011;22247;48.586;13.492;2024-01-10T11:29:39;39.70;;;14.82;;
36211;SDS011;22247;48.586;13.492;2024-01-10T11:32:04;37.75;;;14.48;;
36211;SDS011;22247;48.586;13.492;2024-01-10T11:34:32;32.65;;;12.65;;
36211;SDS011;22247;48.586;13.492;2024-01-10T11:37:15;32.13;;;13.65;;
36211;SDS011;22247;48.586;13.492;2024-01-10T11:39:42;34.42;;;13.20;;
36211;SDS011;22247;48.586;13.492;2024-01-10T11:42:08;36.47;;;14.57;;
36211;SDS011;22247;48.586;13.492;2024-01-10T11:44:36;37.03;;;13.68;;
36211;SDS011;22247;48.586;13.492;2024-01-10T11:47:11;29.08;;;12.60;;
36211;SDS011;22247;48.586;13.492;2024-01-10T11:49:51;40.15;;;14.00;;
36211;SDS011;22247;48.586;13.492;2024-01-10T11:52:20;29.33;;;13.77;;
36211;SDS011;22247;48.586;13.492;2024-01-10T11:54:46;33.85;;;13.77;;
36211;SDS011;22247;48.586;13.492;2024-01-10T11:57:12;42.65;;;15.30;;
36211;SDS011;22247;48.586;13.492;2024-01-10T11:59:37;37.47;;;14.20;;
36211;SDS011;22247;48.586;13.492;2024-01-10T12:02:03;37.90;;;14.23;;
36211;SDS011;22247;48.586;13.492;2024-01-10T12:04:28;37.22;;;13.68;;
36211;SDS011;22247;48.586;13.492;2024-01-10T12:06:53;33.80;;;13.13;;
36211;SDS011;22247;48.586;13.492;2024-01-10T12:09:18;35.72;;;15.32;;
36211;SDS011;22247;48.586;13.492;2024-01-10T12:11:44;42.38;;;13.57;;
36211;SDS011;22247;48.586;13.492;2024-01-10T12:14:14;39.15;;;13.48;;
36211;SDS011;22247;48.586;13.492;2024-01-10T12:16:39;33.25;;;13.50;;
36211;SDS011;22247;48.586;13.492;2024-01-10T12:21:34;40.60;;;13.68;;
36211;SDS011;22247;48.586;13.492;2024-01-10T12:23:59;36.92;;;13.60;;
36211;SDS011;22247;48.586;13.492;2024-01-10T12:26:24;35.80;;;14.63;;
36211;SDS011;22247;48.586;13.492;2024-01-10T12:28:56;40.75;;;15.15;;
36211;SDS011;22247;48.586;13.492;2024-01-10T12:31:24;40.30;;;13.10;;
36211;SDS011;22247;48.586;13.492;2024-01-10T12:33:51;40.20;;;13.48;;
36211;SDS011;22247;48.586;13.492;2024-01-10T12:36:18;43.03;;;14.40;;
36211;SDS011;22247;48.586;13.492;2024-01-10T12:38:44;44.05;;;15.32;;
36211;SDS011;22247;48.586;13.492;2024-01-10T12:43:33;37.85;;;14.57;;
36211;SDS011;22247;48.586;13.492;2024-01-10T12:46:04;52.08;;;14.90;;
36211;SDS011;22247;48.586;13.492;2024-01-10T12:48:29;49.00;;;15.13;;
36211;SDS011;22247;48.586;13.492;2024-01-10T12:50:54;39.05;;;14.52;;
36211;SDS011;22247;48.586;13.492;2024-01-10T12:53:19;40.08;;;13.98;;
36211;SDS011;22247;48.586;13.492;2024-01-10T12:55:44;42.42;;;15.75;;
36211;SDS011;22247;48.586;13.492;2024-01-10T12:58:09;44.10;;;15.68;;
36211;SDS011;22247;48.586;13.492;2024-01-10T13:00:34;39.63;;;15.27;;
36211;SDS011;22247;48.586;13.492;2024-01-10T13:02:59;34.45;;;12.90;;
36211;SDS011;22247;48.586;13.492;2024-01-10T13:05:26;40.03;;;15.98;;
36211;SDS011;22247;48.586;13.492;2024-01-10T13:07:54;46.17;;;15.55;;
36211;SDS011;22247;48.586;13.492;2024-01-10T13:12:44;54.80;;;15.65;;
36211;SDS011;22247;48.586;13.492;2024-01-10T13:15:14;42.95;;;15.75;;
36211;SDS011;22247;48.586;13.492;2024-01-10T13:17:41;42.97;;;16.08;;
36211;SDS011;22247;48.586;13.492;2024-01-10T13:20:06;46.70;;;14.75;;
36211;SDS011;22247;48.586;13.492;2024-01-10T13:22:33;50.13;;;16.02;;
36211;SDS011;22247;48.586;13.492;2024-01-10T13:24:58;44.47;;;15.00;;
36211;SDS011;22247;48.586;13.492;2024-01-10T13:27:23;46.03;;;16.63;;
36211;SDS011;22247;48.586;13.492;2024-01-10T13:29:48;52.85;;;17.50;;
36211;SDS011;22247;48.586;13.492;2024-01-10T13:32:13;51.13;;;15.32;;
36211;SDS011;22247;48.586;13.492;2024-01-10T13:34:39;59.60;;;16.13;;
36211;SDS011;22247;48.586;13.492;2024-01-10T13:37:04;46.08;;;15.23;;
36211;SDS011;22247;48.586;13.492;2024-01-10T13:39:29;46.92;;;15.73;;
36211;SDS011;22247;48.586;13.492;2024-01-10T13:41:54;52.40;;;18.30;;
36211;SDS011;22247;48.586;13.492;2024-01-10T13:44:19;42.35;;;15.98;;
36211;SDS011;22247;48.586;13.492;2024-01-10T13:46:44;43.28;;;15.68;;
36211;SDS011;22247;48.586;13.492;2024-01-10T13:49:09;49.38;;;16.25;;
36211;SDS011;22247;48.586;13.492;2024-01-10T13:51:35;38.00;;;15.80;;
36211;SDS011;22247;48.586;13.492;2024-01-10T13:54:00;49.22;;;15.40;;
36211;SDS011;22247;48.586;13.492;2024-01-10T13:56:25;47.88;;;17.33;;
36211;SDS011;22247;48.586;13.492;2024-01-10T13:58:52;44.75;;;17.88;;
36211;SDS011;22247;48.586;13.492;2024-01-10T14:01:17;38.83;;;16.00;;
36211;SDS011;22247;48.586;13.492;2024-01-10T14:03:42;48.42;;;16.35;;
36211;SDS011;22247;48.586;13.492;2024-01-10T14:06:07;45.67;;;17.35;;
36211;SDS011;22247;48.586;13.492;2024-01-10T14:08:32;57.75;;;17.83;;
36211;SDS011;22247;48.586;13.492;2024-01-10T14:10:58;43.78;;;17.13;;
36211;SDS011;22247;48.586;13.492;2024-01-10T14:13:23;47.70;;;15.85;;
36211;SDS011;22247;48.586;13.492;2024-01-10T14:15:48;46.55;;;18.35;;
36211;SDS011;22247;48.586;13.492;2024-01-10T14:18:12;49.58;;;17.33;;
36211;SDS011;22247;48.586;13.492;2024-01-10T14:20:37;44.42;;;17.70;;
36211;SDS011;22247;48.586;13.492;2024-01-10T14:23:02;48.28;;;17.85;;
36211;SDS011;22247;48.586;13.492;2024-01-10T14:25:27;45.00;;;16.95;;
36211;SDS011;22247;48.586;13.492;2024-01-10T14:27:52;50.95;;;16.80;;
36211;SDS011;22247;48.586;13.492;2024-01-10T14:30:17;51.47;;;16.88;;
36211;SDS011;22247;48.586;13.492;2024-01-10T14:32:43;45.03;;;16.77;;
36211;SDS011;22247;48.586;13.492;2024-01-10T14:35:11;43.38;;;16.30;;
36211;SDS011;22247;48.586;13.492;2024-01-10T14:37:36;49.20;;;17.45;;
36211;SDS011;22247;48.586;13.492;2024-01-10T14:40:01;44.90;;;17.55;;
36211;SDS011;22247;48.586;13.492;2024-01-10T14:42:29;52.85;;;18.00;;
36211;SDS011;22247;48.586;13.492;2024-01-10T14:44:54;49.47;;;18.65;;
36211;SDS011;22247;48.586;13.492;2024-01-10T14:47:19;49.22;;;16.95;;
36211;SDS011;22247;48.586;13.492;2024-01-10T14:49:45;45.40;;;16.63;;
36211;SDS011;22247;48.586;13.492;2024-01-10T14:52:10;51.70;;;18.27;;
36211;SDS011;22247;48.586;13.492;2024-01-10T14:54:37;48.45;;;17.33;;
36211;SDS011;22247;48.586;13.492;2024-01-10T14:57:02;46.70;;;16.73;;
36211;SDS011;22247;48.586;13.492;2024-01-10T14:59:27;48.08;;;18.23;;
36211;SDS011;22247;48.586;13.492;2024-01-10T15:01:55;47.80;;;18.02;;
36211;SDS011;22247;48.586;13.492;2024-01-10T15:04:19;47.83;;;18.33;;
36211;SDS011;22247;48.586;13.492;2024-01-10T15:06:45;54.45;;;18.23;;
36211;SDS011;22247;48.586;13.492;2024-01-10T15:09:10;50.38;;;17.77;;
36211;SDS011;22247;48.586;13.492;2024-01-10T15:11:39;60.55;;;17.85;;
36211;SDS011;22247;48.586;13.492;2024-01-10T15:14:10;47.38;;;18.17;;
36211;SDS011;22247;48.586;13.492;2024-01-10T15:16:37;49.75;;;17.92;;
36211;SDS011;22247;48.586;13.492;2024-01-10T15:19:02;50.42;;;18.90;;
36211;SDS011;22247;48.586;13.492;2024-01-10T15:21:29;57.90;;;20.38;;
36211;SDS011;22247;48.586;13.492;2024-01-10T15:23:56;63.20;;;21.05;;
36211;SDS011;22247;48.586;13.492;2024-01-10T15:28:48;59.35;;;20.70;;
36211;SDS011;22247;48.586;13.492;2024-01-10T15:31:14;56.97;;;20.95;;
36211;SDS011;22247;48.586;13.492;2024-01-10T15:33:40;45.28;;;19.00;;
36211;SDS011;22247;48.586;13.492;2024-01-10T15:36:06;60.92;;;19.80;;
36211;SDS011;22247;48.586;13.492;2024-01-10T15:38:32;65.00;;;21.83;;
36211;SDS011;22247;48.586;13.492;2024-01-10T15:40:57;56.30;;;19.92;;
36211;SDS011;22247;48.586;13.492;2024-01-10T15:43:24;58.70;;;22.15;;
36211;SDS011;22247;48.586;13.492;2024-01-10T15:45:52;55.47;;;20.27;;
36211;SDS011;22247;48.586;13.492;2024-01-10T15:48:19;61.53;;;20.38;;
36211;SDS011;22247;48.586;13.492;2024-01-10T15:50:44;59.20;;;19.95;;
36211;SDS011;22247;48.586;13.492;2024-01-10T15:53:09;63.10;;;20.98;;
36211;SDS011;22247;48.586;13.492;2024-01-10T15:55:34;77.30;;;20.85;;
36211;SDS011;22247;48.586;13.492;2024-01-10T15:58:03;55.60;;;19.25;;
36211;SDS011;22247;48.586;13.492;2024-01-10T16:00:33;56.28;;;19.98;;
36211;SDS011;22247;48.586;13.492;2024-01-10T16:02:58;53.42;;;17.60;;
36211;SDS011;22247;48.586;13.492;2024-01-10T16:05:23;50.33;;;19.88;;
36211;SDS011;22247;48.586;13.492;2024-01-10T16:07:48;59.78;;;20.45;;
36211;SDS011;22247;48.586;13.492;2024-01-10T16:10:13;51.08;;;19.17;;
36211;SDS011;22247;48.586;13.492;2024-01-10T16:12:42;57.28;;;18.65;;
36211;SDS011;22247;48.586;13.492;2024-01-10T16:15:10;56.00;;;18.80;;
36211;SDS011;22247;48.586;13.492;2024-01-10T16:17:38;55.90;;;20.40;;
36211;SDS011;22247;48.586;13.492;2024-01-10T16:20:03;51.28;;;18.60;;
36211;SDS011;22247;48.586;13.492;2024-01-10T16:22:29;61.40;;;19.88;;
36211;SDS011;22247;48.586;13.492;2024-01-10T16:24:54;45.03;;;17.55;;
36211;SDS011;22247;48.586;13.492;2024-01-10T16:27:19;57.03;;;20.10;;
36211;SDS011;22247;48.586;13.492;2024-01-10T16:29:45;56.67;;;19.48;;
36211;SDS011;22247;48.586;13.492;2024-01-10T16:32:12;52.05;;;19.70;;
36211;SDS011;22247;48.586;13.492;2024-01-10T16:34:37;62.95;;;20.67;;
36211;SDS011;22247;48.586;13.492;2024-01-10T16:37:02;68.07;;;22.77;;
36211;SDS011;22247;48.586;13.492;2024-01-10T16:39:30;62.38;;;22.05;;
36211;SDS011;22247;48.586;13.492;2024-01-10T16:41:55;68.43;;;26.08;;
36211;SDS011;22247;48.586;13.492;2024-01-10T16:44:20;65.82;;;25.23;;
36211;SDS011;22247;48.586;13.492;2024-01-10T16:46:45;67.50;;;26.00;;
36211;SDS011;22247;48.586;13.492;2024-01-10T16:49:12;72.90;;;27.38;;
36211;SDS011;22247;48.586;13.492;2024-01-10T16:51:37;67.45;;;25.45;;
36211;SDS011;22247;48.586;13.492;2024-01-10T16:54:04;71.65;;;25.27;;
36211;SDS011;22247;48.586;13.492;2024-01-10T16:58:53;74.55;;;28.52;;
36211;SDS011;22247;48.586;13.492;2024-01-10T17:01:21;70.30;;;26.42;;
36211;SDS011;22247;48.586;13.492;2024-01-10T17:03:46;79.50;;;28.55;;
36211;SDS011;22247;48.586;13.492;2024-01-10T17:06:11;79.78;;;29.17;;
36211;SDS011;22247;48.586;13.492;2024-01-10T17:08:36;72.85;;;26.52;;
36211;SDS011;22247;48.586;13.492;2024-01-10T17:11:02;75.07;;;27.90;;
36211;SDS011;22247;48.586;13.492;2024-01-10T17:13:27;66.70;;;26.13;;
36211;SDS011;22247;48.586;13.492;2024-01-10T17:15:54;70.05;;;26.95;;
36211;SDS011;22247;48.586;13.492;2024-01-10T17:18:19;76.93;;;27.05;;
36211;SDS011;22247;48.586;13.492;2024-01-10T17:20:44;69.97;;;23.75;;
36211;SDS011;22247;48.586;13.492;2024-01-10T17:23:09;63.95;;;25.52;;
36211;SDS011;22247;48.586;13.492;2024-01-10T17:25:37;69.53;;;25.08;;
36211;SDS011;22247;48.586;13.492;2024-01-10T17:28:02;63.92;;;25.92;;
36211;SDS011;22247;48.586;13.492;2024-01-10T17:32:53;68.38;;;25.75;;